Aeroporto :
LOGIN :

Iscrizione | Disclaimer

   EN    FR    IT 

 










Sommario :    VFR   VFR Marginale   IFR   IFR Intensivo   IFR Molto Intensivo
Visibilità : 
Base nubi : 
>= 8 km
>= 3000ft
5 / 8 km
1000 / 3000 ft
1500m / 5 km
500 / 1000 ft
800 / 1500m
200 / 500 ft
< 800m
< 200 ft
Simboli :   Temporali  Nebbia  Neve Forte  Precipitazioni Forti  Vento > 20 kt
SIGMETs :   Varie  Temporali  Ghiacco  Turbolenza  Onda orograficha  Ceneri Vulcaniche







- Altitudine del aeroporto : 83 ft
- Codice IATA : LHR
- Carte del aeroporto


EGLL - London Heathrow

ULTIMO METAR :
  • 180620Z AUTO 01001KT 9999 NCD 08/05 Q1029 NOSIG

METARs OBSOLETI :
  • 180550Z AUTO VRB02KT 9999 NCD 08/05 Q1029 NOSIG
  • 180520Z AUTO 01003KT 9999 NCD 08/05 Q1029 NOSIG
  • 180450Z AUTO 36003KT 9999 NCD 08/05 Q1029 NOSIG
  • 180420Z AUTO 36004KT 9999 NCD 08/05 Q1029
  • 180350Z AUTO 36004KT 9999 NCD 08/05 Q1029 NOSIG

TAF TAF EGLL
Valido dal 18 a 06 ore il 19 a 12 ore UTC


180454Z 1806/1912 03004KT CAVOK
PROB40 1902/1908 6000
Nessun NOTAM noto per questo aeroporto.



MetMap, La meteo Aeronautica in un colpo d'occhio ! - Copyright ORBIFLY Dicembre 2007 - Disclaimer

ORBIFLY MET'MAP TEAM :

Programmazione e sviluppo : Alexandra Zaïnal
Concezione e sviluppo : Baudouin d'Aumeries
Co-Programmazione e sviluppo : Marc-Olivier Méhu
Supporto tecnico e logistico : Manuel Goepfert
Aiuto per la traduzione : Arnaldo La Scala

Contatto : metmap@orbifly.com




FONTI E CREDITI :

   NOAA